Time;durP1;ratioP1;P1;durP2;ratioP2;P2;SDS_P1;SDS_P2;PMS_P1;PMS_P2;Temp;Humidity;BMP_temperature;BMP_pressure;BME280_temperature;BME280_humidity;BME280_pressure;Samples;Min_cycle;Max_cycle;Signal;HPM_P1;HPM_P2
2022/01/20 00:00:23;;;;;;;32.65;4.10;;;;;;;8.40;100.00;102277.06;5075953;28;20268;-53
2022/01/20 00:02:59;;;;;;;39.08;5.47;;;;;;;8.38;100.00;102289.69;5058588;28;20162;-55
2022/01/20 00:26:56;;;;;;;29.88;4.32;;;;;;;8.47;100.00;102312.81;5075161;28;20071;-54
2022/01/20 00:29:27;;;;;;;36.45;4.78;;;;;;;8.69;100.00;102315.31;5058303;28;20036;-53
2022/01/20 00:32:07;;;;;;;28.05;3.90;;;;;;;8.39;100.00;102315.38;5075604;28;20102;-54
2022/01/20 00:37:17;;;;;;;28.05;5.22;;;;;;;8.77;100.00;102320.75;5075325;28;20055;-51
2022/01/20 00:39:44;;;;;;;38.80;4.83;;;;;;;8.72;100.00;102320.34;5057012;28;20040;-53
2022/01/20 00:42:09;;;;;;;24.92;3.55;;;;;;;8.42;100.00;102300.88;5057513;28;20047;-51
2022/01/20 00:44:35;;;;;;;33.77;5.13;;;;;;;8.33;100.00;102305.28;5075075;28;20040;-51
2022/01/20 00:47:01;;;;;;;19.40;3.33;;;;;;;8.65;100.00;102320.09;5074976;28;20094;-53
2022/01/20 00:49:26;;;;;;;34.77;3.70;;;;;;;8.65;100.00;102320.09;5075198;28;20045;-55
2022/01/20 00:51:52;;;;;;;20.40;3.23;;;;;;;8.36;100.00;102317.47;5075141;28;20044;-54
2022/01/20 00:54:18;;;;;;;24.20;4.57;;;;;;;8.44;100.00;102315.75;5057247;28;20056;-53
2022/01/20 00:56:43;;;;;;;23.30;3.42;;;;;;;8.58;100.00;102319.81;5057151;28;20052;-53
2022/01/20 00:59:09;;;;;;;19.15;2.95;;;;;;;8.53;100.00;102322.09;5074699;28;20063;-55
2022/01/20 01:01:35;;;;;;;20.27;3.30;;;;;;;8.43;100.00;102326.59;5075284;28;20036;-52
2022/01/20 01:04:00;;;;;;;33.63;3.67;;;;;;;8.21;100.00;102325.94;5074463;28;20115;-55
2022/01/20 01:09:07;;;;;;;21.38;3.47;;;;;;;8.39;100.00;102338.50;5056607;28;20285;-53
2022/01/20 01:11:34;;;;;;;18.02;2.50;;;;;;;8.64;100.00;102333.56;5075014;28;20040;-53
2022/01/20 01:14:02;;;;;;;30.92;3.33;;;;;;;8.70;100.00;102331.16;5074684;28;20119;-51
2022/01/20 01:16:41;;;;;;;17.00;3.67;;;;;;;8.57;100.00;102325.31;5074856;28;20040;-51
2022/01/20 01:22:04;;;;;;;20.42;2.65;;;;;;;8.40;100.00;102311.72;5075252;28;20044;-50
2022/01/20 01:24:30;;;;;;;22.70;2.90;;;;;;;8.46;100.00;102307.63;5056917;28;20040;-50
2022/01/20 01:26:56;;;;;;;19.50;4.28;;;;;;;8.24;100.00;102314.13;5074242;28;20044;-55
2022/01/20 01:31:59;;;;;;;18.27;2.63;;;;;;;8.07;100.00;102307.72;5074355;28;20066;-54
2022/01/20 01:34:29;;;;;;;21.85;3.33;;;;;;;8.31;100.00;102313.41;5056417;28;20075;-52
2022/01/20 01:38:24;;;;;;;15.77;2.13;;;;;;;8.24;100.00;102319.47;5073983;28;20048;-54
2022/01/20 01:39:43;;;;;;;20.63;3.65;;;;;;;8.28;100.00;102315.50;5065115;28;20044;-54
2022/01/20 01:42:09;;;;;;;25.70;2.87;;;;;;;8.41;100.00;102318.72;5056642;28;20052;-53
2022/01/20 01:44:34;;;;;;;16.98;3.25;;;;;;;8.25;100.00;102324.66;5039610;28;20384;-55
2022/01/20 01:47:00;;;;;;;14.85;2.83;;;;;;;8.57;100.00;102325.31;5056212;28;20048;-51
2022/01/20 01:49:27;;;;;;;14.27;2.22;;;;;;;8.48;100.00;102327.00;5056710;28;20098;-53
2022/01/20 01:51:54;;;;;;;16.90;2.20;;;;;;;8.51;100.00;102331.22;5056386;28;20047;-54
2022/01/20 01:54:20;;;;;;;20.38;2.17;;;;;;;8.43;100.00;102323.94;5056308;28;20048;-51
2022/01/20 01:56:48;;;;;;;10.40;2.17;;;;;;;8.46;100.00;102312.97;5073985;28;20047;-54
2022/01/20 01:59:18;;;;;;;17.90;2.22;;;;;;;8.49;100.00;102307.34;5056090;28;20036;-53
2022/01/20 02:01:58;;;;;;;14.48;3.17;;;;;;;8.16;100.00;102328.16;5058128;28;20067;-55
2022/01/20 02:04:24;;;;;;;;;;;;;;;8.14;100.00;102336.31;5056012;28;20045;-51
2022/01/20 02:20:36;;;;;;;11.05;2.67;;;;;;;8.49;100.00;102339.34;5056329;28;20174;-52
2022/01/20 02:23:09;;;;;;;20.55;2.33;;;;;;;8.45;100.00;102341.44;5040190;28;20052;-50
2022/01/20 02:25:36;;;;;;;18.07;3.50;;;;;;;8.31;100.00;102331.25;5073343;28;20103;-53
2022/01/20 02:28:07;;;;;;;20.23;2.25;;;;;;;8.37;100.00;102335.13;5073373;28;20289;-52
2022/01/20 02:30:34;;;;;;;19.63;3.83;;;;;;;8.25;100.00;102329.13;5055384;28;20041;-54
2022/01/20 02:33:07;;;;;;;29.20;4.07;;;;;;;8.17;100.00;102317.38;5055888;28;20115;-51
2022/01/20 02:35:40;;;;;;;32.65;3.78;;;;;;;8.00;100.00;102313.63;5055034;28;20046;-51
2022/01/20 02:38:19;;;;;;;18.77;2.53;;;;;;;8.49;100.00;102328.66;5073190;28;20477;-54
2022/01/20 02:45:55;;;;;;;26.98;4.10;;;;;;;8.47;100.00;102328.81;5040175;28;20019;-53
2022/01/20 02:48:22;;;;;;;23.25;3.22;;;;;;;8.50;100.00;102321.53;5054412;28;20132;-53
2022/01/20 02:50:48;;;;;;;18.63;2.70;;;;;;;8.57;100.00;102333.31;5054758;28;20128;-50
2022/01/20 02:53:13;;;;;;;23.67;2.60;;;;;;;8.70;100.00;102320.47;5054122;28;20561;-52
2022/01/20 02:55:39;;;;;;;20.20;3.45;;;;;;;8.63;100.00;102323.88;5053990;28;20056;-54
2022/01/20 02:58:06;;;;;;;17.50;2.83;;;;;;;8.70;100.00;102335.66;5037775;28;20131;-55
2022/01/20 03:00:34;;;;;;;23.13;3.25;;;;;;;8.80;100.00;102319.63;5072394;28;20052;-51
2022/01/20 03:03:01;;;;;;;20.17;3.85;;;;;;;8.79;100.00;102328.59;5072160;28;20063;-54
2022/01/20 03:05:27;;;;;;;23.23;3.03;;;;;;;8.51;100.00;102336.53;5053789;28;20051;-53
2022/01/20 03:08:00;;;;;;;18.33;2.20;;;;;;;8.15;100.00;102310.50;5039030;28;20041;-51
2022/01/20 03:10:30;;;;;;;7.72;2.03;;;;;;;8.44;100.00;102310.44;5054562;28;20114;-53
2022/01/20 03:12:57;;;;;;;8.88;1.40;;;;;;;8.38;100.00;102302.16;5054275;28;20044;-55
2022/01/20 03:15:23;;;;;;;9.23;1.70;;;;;;;8.39;100.00;102306.50;5071868;28;20036;-54
2022/01/20 03:17:49;;;;;;;;;;;;;;;8.17;100.00;102304.06;5072628;28;20161;-53
2022/01/20 03:20:14;;;;;;;8.67;1.40;;;;;;;8.42;100.00;102308.88;5057746;28;19940;-55
2022/01/20 03:22:40;;;;;;;11.93;1.20;;;;;;;8.38;100.00;102316.34;5057503;28;20476;-55
2022/01/20 03:25:06;;;;;;;8.95;1.40;;;;;;;8.72;100.00;102326.50;5057836;28;20040;-55
2022/01/20 03:27:32;;;;;;;14.77;1.90;;;;;;;8.87;100.00;102320.69;5057720;28;20452;-55
2022/01/20 03:29:58;;;;;;;5.18;1.45;;;;;;;8.75;100.00;102317.38;5057586;28;20056;-56
2022/01/20 03:32:23;;;;;;;9.77;1.70;;;;;;;8.71;100.00;102322.16;5075592;28;20036;-55
2022/01/20 03:34:49;;;;;;;10.70;1.67;;;;;;;8.74;100.00;102326.38;5057517;28;20052;-55
2022/01/20 03:37:15;;;;;;;4.53;1.35;;;;;;;8.63;100.00;102327.41;5057181;28;20131;-53
2022/01/20 03:39:56;;;;;;;12.98;1.98;;;;;;;8.24;100.00;102325.66;5057620;28;20056;-53
2022/01/20 03:42:21;;;;;;;20.55;2.55;;;;;;;8.39;100.00;102318.03;5057363;28;20476;-53
2022/01/20 03:44:47;;;;;;;19.92;2.25;;;;;;;8.32;100.00;102312.44;5057451;28;20143;-52
2022/01/20 03:47:13;;;;;;;13.60;1.83;;;;;;;8.40;100.00;102324.19;5040584;28;20029;-53
2022/01/20 03:49:51;;;;;;;9.10;1.67;;;;;;;8.07;100.00;102321.88;5057138;28;20129;-53
2022/01/20 03:52:19;;;;;;;10.80;2.85;;;;;;;8.37;100.00;102320.00;5057792;28;20044;-51
2022/01/20 03:54:45;;;;;;;14.60;2.28;;;;;;;8.65;100.00;102327.22;5040202;28;20067;-50
2022/01/20 03:57:27;;;;;;;12.88;3.20;;;;;;;8.22;100.00;102318.75;5028810;28;20037;-54
2022/01/20 03:59:55;;;;;;;22.65;2.55;;;;;;;8.58;100.00;102329.66;5075077;28;20511;-54
2022/01/20 04:02:39;;;;;;;13.88;2.45;;;;;;;8.59;100.00;102345.50;5075024;28;20486;-50
2022/01/20 04:05:13;;;;;;;18.48;3.20;;;;;;;8.74;100.00;102364.53;5041796;28;20094;-53
2022/01/20 04:07:47;;;;;;;10.15;2.20;;;;;;;8.79;100.00;102374.78;5041759;28;20040;-52
2022/01/20 04:10:12;;;;;;;20.60;2.70;;;;;;;8.51;100.00;102380.06;5056981;28;20054;-54
2022/01/20 04:12:38;;;;;;;14.40;2.43;;;;;;;8.35;100.00;102369.09;5056858;28;20059;-51
2022/01/20 04:15:08;;;;;;;17.27;2.50;;;;;;;8.50;100.00;102372.19;5056706;28;20278;-52
2022/01/20 04:17:39;;;;;;;12.73;2.60;;;;;;;8.73;100.00;102368.19;5057037;28;20037;-52
2022/01/20 04:20:05;;;;;;;10.43;2.33;;;;;;;8.83;100.00;102372.66;5057517;28;20091;-53
2022/01/20 04:22:31;;;;;;;11.25;2.25;;;;;;;8.66;100.00;102372.44;5040658;28;20040;-50
2022/01/20 04:24:56;;;;;;;28.73;2.43;;;;;;;8.53;100.00;102371.91;5039874;28;20040;-54
2022/01/20 04:27:23;;;;;;;15.38;2.05;;;;;;;8.57;100.00;102373.31;5056734;28;20700;-54
2022/01/20 04:29:48;;;;;;;8.18;1.58;;;;;;;8.54;100.00;102369.09;5056346;28;20072;-54
2022/01/20 04:32:14;;;;;;;11.67;3.20;;;;;;;8.54;100.00;102374.44;5040042;28;20033;-52
2022/01/20 04:34:39;;;;;;;15.20;2.00;;;;;;;8.83;100.00;102378.84;5056540;28;20381;-50
2022/01/20 04:37:06;;;;;;;24.03;3.20;;;;;;;8.76;100.00;102377.75;5056452;28;20278;-55
2022/01/20 04:39:34;;;;;;;;;;;;;;;8.73;100.00;102378.03;5056913;28;20503;-52
2022/01/20 04:42:00;;;;;;;16.20;2.15;;;;;;;8.69;100.00;102382.00;5055613;28;19924;-54
2022/01/20 04:45:04;;;;;;;7.22;1.40;;;;;;;8.74;100.00;102382.38;5055829;28;20135;-51
2022/01/20 04:47:37;;;;;;;12.15;2.35;;;;;;;8.77;100.00;102395.44;5054659;28;20059;-52
2022/01/20 04:58:16;;;;;;;8.98;1.98;;;;;;;8.77;100.00;102407.94;5056321;28;20087;-51
2022/01/20 05:00:42;;;;;;;15.53;1.57;;;;;;;8.80;100.00;102410.31;5057042;28;20044;-52
2022/01/20 05:03:26;;;;;;;16.50;2.28;;;;;;;8.90;100.00;102411.13;5058910;28;20105;-51
2022/01/20 05:05:53;;;;;;;12.82;1.83;;;;;;;8.82;100.00;102425.16;5055878;28;20052;-51
2022/01/20 05:08:27;;;;;;;25.27;2.65;;;;;;;8.23;100.00;102433.25;5055844;28;20468;-53
2022/01/20 05:11:00;;;;;;;20.67;2.60;;;;;;;8.28;100.00;102444.31;5074000;28;20318;-51
2022/01/20 05:13:33;;;;;;;17.70;2.47;;;;;;;8.18;100.00;102438.97;5055877;28;20098;-51
2022/01/20 05:16:00;;;;;;;14.70;2.20;;;;;;;8.10;100.00;102438.84;5055652;28;20036;-54
2022/01/20 05:18:25;;;;;;;;;;;;;;;8.18;100.00;102441.66;5055953;28;20052;-51
2022/01/20 05:20:51;;;;;;;23.13;3.57;;;;;;;8.23;100.00;102445.72;5073717;28;20008;-51
2022/01/20 05:23:18;;;;;;;14.45;1.85;;;;;;;8.10;100.00;102436.19;5055294;28;20144;-50
2022/01/20 05:25:44;;;;;;;;;;;;;;;8.27;100.00;102439.97;5073743;28;20051;-50
2022/01/20 05:28:10;;;;;;;16.15;3.45;;;;;;;8.51;100.00;102443.19;5055407;28;19920;-50
2022/01/20 05:30:38;;;;;;;22.60;3.42;;;;;;;8.25;100.00;102438.41;5055254;28;20051;-51
2022/01/20 05:33:25;;;;;;;18.83;2.85;;;;;;;8.18;100.00;102441.66;5055152;28;20064;-51
2022/01/20 05:35:50;;;;;;;18.75;2.72;;;;;;;8.26;100.00;102443.63;5055717;28;20377;-51
2022/01/20 05:38:16;;;;;;;25.73;4.78;;;;;;;8.21;100.00;102456.53;5055703;28;20021;-54
2022/01/20 05:40:45;;;;;;;20.80;2.90;;;;;;;8.33;100.00;102454.56;5072795;28;20041;-49
2022/01/20 05:43:11;;;;;;;27.97;4.57;;;;;;;8.32;100.00;102459.03;5073133;28;20106;-51
2022/01/20 05:45:38;;;;;;;27.73;3.35;;;;;;;8.25;100.00;102467.72;5054916;28;20073;-50
2022/01/20 05:48:17;;;;;;;22.38;4.60;;;;;;;8.24;100.00;102476.72;5055618;28;20094;-53
2022/01/20 05:51:04;;;;;;;16.00;3.08;;;;;;;8.30;100.00;102469.00;5057730;28;20139;-54
2022/01/20 05:53:31;;;;;;;27.40;4.78;;;;;;;8.22;100.00;102473.34;5038206;28;20102;-52
2022/01/20 05:55:57;;;;;;;25.77;3.53;;;;;;;8.15;100.00;102481.91;5055628;28;20056;-55
2022/01/20 05:58:23;;;;;;;36.47;3.92;;;;;;;8.69;100.00;102480.69;5073559;28;20041;-52
2022/01/20 06:00:50;;;;;;;24.13;3.65;;;;;;;8.81;100.00;102486.69;5055238;28;20040;-52
2022/01/20 06:06:01;;;;;;;11.88;1.92;;;;;;;9.01;100.00;102509.69;5041217;28;19924;-54
2022/01/20 06:08:27;;;;;;;27.92;3.47;;;;;;;8.64;100.00;102506.91;5072295;28;20044;-53
2022/01/20 06:10:52;;;;;;;21.73;3.15;;;;;;;8.90;100.00;102512.50;5054640;28;20471;-51
2022/01/20 06:13:24;;;;;;;31.58;4.35;;;;;;;8.67;100.00;102518.16;5039253;28;20044;-52
2022/01/20 06:15:49;;;;;;;18.33;3.60;;;;;;;8.45;100.00;102533.41;5072629;28;20040;-53
2022/01/20 06:18:16;;;;;;;25.77;4.50;;;;;;;8.61;100.00;102524.88;5054670;28;20097;-53
2022/01/20 06:20:48;;;;;;;30.33;3.60;;;;;;;8.44;100.00;102523.72;5054676;28;20277;-51
2022/01/20 06:23:15;;;;;;;21.08;4.53;;;;;;;8.23;100.00;102520.34;5054552;28;20046;-52
2022/01/20 06:25:41;;;;;;;26.48;3.33;;;;;;;8.51;100.00;102523.19;5072681;28;20032;-51
2022/01/20 06:28:07;;;;;;;31.85;4.25;;;;;;;8.43;100.00;102530.03;5054937;28;20056;-54
2022/01/20 06:30:33;;;;;;;24.25;3.58;;;;;;;8.50;100.00;102537.50;5054364;28;20040;-51
2022/01/20 06:33:00;;;;;;;;;;;;;;;8.33;100.00;102531.88;5038326;28;20043;-55
2022/01/20 06:35:33;;;;;;;23.85;4.03;;;;;;;8.36;100.00;102528.94;5054677;28;20362;-51
2022/01/20 06:37:59;;;;;;;63.17;7.28;;;;;;;8.44;100.00;102537.06;5054450;28;20408;-52
2022/01/20 06:40:25;;;;;;;22.15;3.53;;;;;;;8.24;100.00;102543.34;5072169;28;20047;-52
2022/01/20 06:42:51;;;;;;;25.45;3.33;;;;;;;8.09;100.00;102542.91;5053824;28;20445;-53
2022/01/20 06:45:19;;;;;;;22.63;5.00;;;;;;;8.37;100.00;102532.41;5037693;28;20036;-53
2022/01/20 06:47:47;;;;;;;19.60;2.50;;;;;;;8.29;100.00;102533.09;5054075;28;20036;-52
2022/01/20 06:50:13;;;;;;;14.93;2.60;;;;;;;8.35;100.00;102535.25;5054150;28;20041;-53
2022/01/20 06:52:44;;;;;;;22.50;3.65;;;;;;;8.37;100.00;102533.28;5055057;28;20116;-54
2022/01/20 06:55:12;;;;;;;26.73;4.22;;;;;;;8.79;100.00;102542.03;5041938;28;20563;-53
2022/01/20 06:57:39;;;;;;;17.42;3.47;;;;;;;8.79;100.00;102550.03;5058063;28;20090;-52
2022/01/20 07:00:17;;;;;;;15.60;2.72;;;;;;;8.67;100.00;102560.81;5058269;28;20067;-55
2022/01/20 07:02:45;;;;;;;18.27;2.92;;;;;;;8.70;100.00;102576.53;5042230;28;20032;-52
2022/01/20 07:05:17;;;;;;;14.10;2.72;;;;;;;8.61;100.00;102572.88;5057860;28;20611;-52
2022/01/20 07:07:44;;;;;;;33.55;4.15;;;;;;;8.73;100.00;102586.94;5058187;28;20079;-54
2022/01/20 07:10:17;;;;;;;18.23;3.17;;;;;;;8.72;100.00;102593.25;5042129;28;20033;-52
2022/01/20 07:12:47;;;;;;;18.50;2.60;;;;;;;8.87;100.00;102595.50;5075450;28;20431;-53
2022/01/20 07:15:15;;;;;;;29.10;2.85;;;;;;;8.64;100.00;102584.25;5057845;28;20081;-52
2022/01/20 07:17:43;;;;;;;24.05;3.28;;;;;;;8.71;100.00;102588.06;5058223;28;20033;-55
2022/01/20 07:20:10;;;;;;;17.33;2.50;;;;;;;8.87;100.00;102582.16;5058113;28;20079;-50
2022/01/20 07:22:48;;;;;;;23.02;4.88;;;;;;;8.94;100.00;102593.13;5057875;28;20514;-52
2022/01/20 07:25:13;;;;;;;30.50;4.82;;;;;;;8.82;100.00;102595.91;5058249;28;20136;-51
2022/01/20 07:28:05;;;;;;;17.35;3.25;;;;;;;8.62;100.00;102592.41;5072183;28;20056;-51
2022/01/20 07:30:32;;;;;;;21.40;3.85;;;;;;;8.67;100.00;102598.16;5041271;28;20037;-51
2022/01/20 07:33:02;;;;;;;26.95;4.30;;;;;;;8.60;100.00;102592.53;5057454;28;20081;-53
2022/01/20 07:35:28;;;;;;;22.55;4.28;;;;;;;8.65;100.00;102594.78;5057835;28;20680;-50
2022/01/20 07:37:54;;;;;;;15.75;2.30;;;;;;;8.88;100.00;102597.19;5057136;28;20068;-55
2022/01/20 07:40:19;;;;;;;19.08;3.03;;;;;;;8.81;100.00;102598.75;5057574;28;20048;-51
2022/01/20 07:42:45;;;;;;;18.43;2.53;;;;;;;8.92;100.00;102611.94;5056975;28;20063;-54
2022/01/20 07:45:32;;;;;;;13.88;2.20;;;;;;;8.77;100.00;102606.19;5057636;28;20056;-54
2022/01/20 07:48:19;;;;;;;21.13;2.85;;;;;;;8.82;100.00;102609.25;5057171;28;20112;-55
2022/01/20 07:50:48;;;;;;;27.75;3.55;;;;;;;8.84;100.00;102619.81;5040616;28;20052;-51
2022/01/20 07:53:17;;;;;;;10.57;2.03;;;;;;;8.59;100.00;102620.19;5041562;28;20048;-54
2022/01/20 07:55:43;;;;;;;27.00;3.92;;;;;;;8.75;100.00;102624.16;5040223;28;20086;-51
2022/01/20 07:58:08;;;;;;;13.57;2.77;;;;;;;8.84;100.00;102630.47;5057059;28;20041;-52
2022/01/20 08:00:40;;;;;;;17.20;2.28;;;;;;;8.92;100.00;102627.94;5057250;28;20044;-51
2022/01/20 08:03:06;;;;;;;25.70;2.90;;;;;;;8.89;100.00;102634.41;5040306;28;20044;-54
2022/01/20 08:05:41;;;;;;;21.13;2.63;;;;;;;8.97;100.00;102640.88;5040592;28;20126;-51
2022/01/20 08:08:07;;;;;;;14.07;3.50;;;;;;;9.17;100.00;102637.22;5057753;28;20088;-51
2022/01/20 08:10:35;;;;;;;22.00;3.22;;;;;;;9.03;100.00;102642.97;5056740;28;20044;-50
2022/01/20 08:13:04;;;;;;;;;;;;;;;9.10;100.00;102653.94;5041482;28;20079;-52
2022/01/20 08:15:29;;;;;;;14.48;2.72;;;;;;;8.87;100.00;102648.88;5057052;28;19938;-50
2022/01/20 08:17:59;;;;;;;16.75;2.10;;;;;;;8.88;100.00;102658.56;5057192;28;20064;-53
2022/01/20 08:20:25;;;;;;;18.38;2.47;;;;;;;8.68;100.00;102660.38;5040536;28;20042;-51
2022/01/20 08:22:55;;;;;;;16.63;2.72;;;;;;;8.87;100.00;102662.22;5056740;28;20381;-54
2022/01/20 08:25:21;;;;;;;11.85;2.28;;;;;;;9.04;100.00;102658.84;5056763;28;20090;-53
2022/01/20 08:27:48;;;;;;;11.82;2.42;;;;;;;8.93;100.00;102661.66;5056863;28;20048;-54
2022/01/20 08:30:16;;;;;;;24.35;3.13;;;;;;;8.96;100.00;102672.03;5056555;28;20079;-53
2022/01/20 08:32:43;;;;;;;18.98;2.67;;;;;;;8.95;100.00;102674.84;5074157;28;20500;-50
2022/01/20 08:35:20;;;;;;;21.13;3.20;;;;;;;9.09;100.00;102668.25;5056589;28;20045;-51
2022/01/20 08:37:54;;;;;;;14.10;2.72;;;;;;;8.76;100.00;102673.84;5074745;28;20060;-53
2022/01/20 08:40:23;;;;;;;17.40;4.72;;;;;;;8.81;100.00;102673.44;5057035;28;20464;-52
2022/01/20 08:42:52;;;;;;;23.23;3.10;;;;;;;8.87;100.00;102679.03;5052972;28;20137;-53
2022/01/20 08:45:21;;;;;;;18.27;2.70;;;;;;;9.02;100.00;102690.19;5037116;28;20377;-53
2022/01/20 08:47:51;;;;;;;21.45;2.92;;;;;;;8.99;100.00;102685.09;5052884;28;20064;-53
2022/01/20 08:50:18;;;;;;;15.68;2.60;;;;;;;8.90;100.00;102699.28;5052859;28;20453;-51
2022/01/20 08:52:44;;;;;;;19.38;3.22;;;;;;;9.00;100.00;102685.94;5052646;28;20049;-51
2022/01/20 08:55:09;;;;;;;17.90;3.65;;;;;;;8.80;100.00;102687.75;5052849;28;20068;-51
2022/01/20 08:57:50;;;;;;;14.65;2.33;;;;;;;9.12;100.00;102689.31;5053148;28;20052;-51
2022/01/20 09:00:17;;;;;;;24.20;3.67;;;;;;;8.91;100.00;102692.97;5052970;28;20037;-54
2022/01/20 09:02:54;;;;;;;19.52;3.42;;;;;;;8.95;100.00;102696.22;5052885;28;20204;-54
2022/01/20 09:05:21;;;;;;;19.45;2.60;;;;;;;9.10;100.00;102696.63;5052871;28;20094;-52
2022/01/20 09:08:02;;;;;;;25.17;4.00;;;;;;;9.11;100.00;102693.84;5053196;28;20090;-50
2022/01/20 09:10:36;;;;;;;14.43;2.53;;;;;;;8.94;100.00;102700.69;5052832;28;20418;-52
2022/01/20 09:15:47;;;;;;;19.05;2.83;;;;;;;8.86;100.00;102705.88;5052088;28;20045;-54
2022/01/20 09:18:42;;;;;;;23.63;2.60;;;;;;;8.83;100.00;102708.84;5039715;28;20037;-52
2022/01/20 09:21:07;;;;;;;16.77;3.03;;;;;;;8.75;100.00;102712.19;5056719;28;20047;-53
2022/01/20 09:23:33;;;;;;;18.35;2.80;;;;;;;9.04;100.00;102711.38;5053280;28;20033;-51
2022/01/20 09:25:59;;;;;;;24.42;3.05;;;;;;;10.19;100.00;102712.34;5051921;28;20366;-51
2022/01/20 09:28:28;;;;;;;13.30;3.63;;;;;;;11.69;100.00;102712.03;5053005;28;20052;-55
2022/01/20 09:30:57;;;;;;;29.03;4.53;;;;;;;12.76;85.52;102719.78;5052728;28;20037;-54
2022/01/20 09:33:27;;;;;;;18.92;3.40;;;;;;;13.50;75.28;102715.50;5052792;28;20281;-50
2022/01/20 09:35:53;;;;;;;12.88;2.70;;;;;;;14.03;74.33;102723.16;5052544;28;20398;-52
2022/01/20 09:38:19;;;;;;;17.00;2.25;;;;;;;14.34;67.84;102720.53;5052254;28;20182;-53
2022/01/20 09:40:45;;;;;;;15.35;2.58;;;;;;;14.57;66.23;102725.13;5051710;28;20083;-52
2022/01/20 09:43:14;;;;;;;18.55;2.97;;;;;;;14.36;67.06;102725.75;5051286;28;20471;-52
2022/01/20 09:45:40;;;;;;;19.27;3.23;;;;;;;15.47;63.75;102736.34;5052179;28;20128;-53
2022/01/20 09:48:09;;;;;;;15.80;2.93;;;;;;;15.37;61.94;102745.72;5051431;28;20361;-52
2022/01/20 09:50:55;;;;;;;14.23;2.93;;;;;;;14.74;59.55;102747.47;5052089;28;20683;-54
2022/01/20 09:53:39;;;;;;;11.27;2.97;;;;;;;14.66;57.96;102752.88;5052249;28;20735;-53
2022/01/20 09:56:27;;;;;;;13.53;3.00;;;;;;;15.22;60.65;102759.94;5050164;28;20579;-56
2022/01/20 09:58:53;;;;;;;11.18;2.90;;;;;;;15.35;57.30;102759.38;5051965;28;20297;-54
2022/01/20 10:01:42;;;;;;;17.33;3.40;;;;;;;14.40;61.77;102769.28;5051721;28;20041;-52
2022/01/20 10:04:35;;;;;;;27.00;3.40;;;;;;;13.34;69.07;102778.97;5051889;28;20380;-56
2022/01/20 10:07:36;;;;;;;12.83;2.70;;;;;;;12.53;77.93;102781.25;5047830;28;20302;-56
2022/01/20 10:10:35;;;;;;;18.53;2.87;;;;;;;12.32;84.75;102774.44;5052411;28;20289;-53
2022/01/20 10:13:20;;;;;;;19.17;2.70;;;;;;;12.13;84.45;102780.88;5051741;28;20586;-55
2022/01/20 10:16:11;;;;;;;10.73;2.60;;;;;;;11.79;95.26;102773.59;5051569;28;20368;-52
2022/01/20 10:19:00;;;;;;;16.37;2.37;;;;;;;11.36;91.18;102783.28;5051377;28;20725;-52
2022/01/20 10:21:43;;;;;;;16.47;4.37;;;;;;;10.97;94.51;102779.84;5051214;28;20827;-53
2022/01/20 10:24:32;;;;;;;18.10;2.93;;;;;;;11.29;94.30;102799.09;5048833;28;20320;-54
2022/01/20 10:27:17;;;;;;;18.93;3.60;;;;;;;11.04;88.13;102807.69;5050800;28;20293;-54
2022/01/20 10:29:59;;;;;;;12.87;2.47;;;;;;;10.65;94.27;102810.59;5050750;28;20632;-54
2022/01/20 10:32:26;;;;;;;11.13;2.70;;;;;;;10.74;100.00;102823.09;5051499;28;20300;-55
2022/01/20 10:35:04;;;;;;;11.45;2.75;;;;;;;10.49;95.94;102810.38;5050617;28;20037;-53
2022/01/20 10:37:33;;;;;;;12.50;1.90;;;;;;;10.45;100.00;102812.47;5051559;28;20048;-50
2022/01/20 10:40:06;;;;;;;13.18;2.20;;;;;;;10.49;100.00;102818.41;5050954;28;20041;-53
2022/01/20 10:42:41;;;;;;;17.73;2.88;;;;;;;10.54;100.00;102813.44;5051192;28;20051;-52
2022/01/20 10:45:17;;;;;;;17.92;2.80;;;;;;;10.95;94.25;102816.66;5051587;28;20107;-53
2022/01/20 10:47:50;;;;;;;16.75;2.00;;;;;;;13.34;98.08;102815.75;5034253;28;20052;-51
2022/01/20 10:50:27;;;;;;;12.80;4.00;;;;;;;14.54;66.68;102830.50;5051567;28;20056;-53
2022/01/20 10:52:58;;;;;;;10.40;2.57;;;;;;;14.18;66.05;102828.22;5051195;28;20297;-52
2022/01/20 10:55:27;;;;;;;12.07;2.42;;;;;;;14.18;77.86;102829.06;5051464;28;20286;-54
2022/01/20 10:57:57;;;;;;;14.93;2.67;;;;;;;14.00;57.80;102841.84;5051609;28;20051;-54
2022/01/20 11:00:25;;;;;;;9.37;2.03;;;;;;;13.23;75.18;102819.59;5051509;28;20365;-52
2022/01/20 11:02:55;;;;;;;14.20;4.43;;;;;;;12.34;90.60;102817.22;5050885;28;20677;-50
2022/01/20 11:05:23;;;;;;;10.30;3.13;;;;;;;11.64;76.81;102812.66;5050858;28;20274;-52
2022/01/20 11:07:49;;;;;;;16.57;2.40;;;;;;;13.74;72.95;102837.50;5050685;28;20281;-53
2022/01/20 11:10:17;;;;;;;9.13;2.35;;;;;;;15.25;71.46;102843.19;5052107;28;20347;-54
2022/01/20 11:12:46;;;;;;;15.20;2.37;;;;;;;15.83;57.14;102826.56;5052073;28;20076;-52
2022/01/20 11:15:40;;;;;;;10.00;2.30;;;;;;;17.20;50.96;102821.84;5050694;28;20734;-53
2022/01/20 11:18:06;;;;;;;20.93;2.57;;;;;;;17.29;51.25;102810.91;5051040;28;20761;-54
2022/01/20 11:20:47;;;;;;;11.23;2.20;;;;;;;16.20;58.74;102822.19;5034932;28;20320;-54
2022/01/20 11:23:15;;;;;;;17.47;2.47;;;;;;;15.42;52.27;102821.47;5050995;28;20590;-51
2022/01/20 11:26:04;;;;;;;8.90;2.43;;;;;;;14.99;53.45;102813.84;5036753;28;20301;-51
2022/01/20 11:28:58;;;;;;;9.43;2.63;;;;;;;14.70;61.98;102818.81;5040940;28;20313;-52
2022/01/20 11:31:42;;;;;;;9.60;2.13;;;;;;;15.40;68.00;102815.44;5052235;28;20293;-52
2022/01/20 11:34:28;;;;;;;11.63;2.47;;;;;;;15.86;50.01;102801.09;5037894;28;20282;-54
2022/01/20 11:36:53;;;;;;;9.70;3.13;;;;;;;16.20;52.45;102811.41;5052094;28;20273;-53
2022/01/20 11:39:24;;;;;;;7.05;2.28;;;;;;;18.19;54.26;102795.00;5053049;28;20036;-54
2022/01/20 11:41:51;;;;;;;8.93;1.90;;;;;;;17.83;52.51;102800.53;5059361;28;20036;-54
2022/01/20 11:44:20;;;;;;;5.47;1.77;;;;;;;17.99;51.40;102800.25;5076118;28;20040;-55
2022/01/20 11:46:49;;;;;;;9.70;2.10;;;;;;;18.81;48.64;102796.97;5057522;28;20044;-54
2022/01/20 11:49:18;;;;;;;8.67;2.13;;;;;;;18.57;48.65;102804.59;5075719;28;20115;-55
2022/01/20 11:51:52;;;;;;;8.67;1.70;;;;;;;18.78;37.52;102798.22;5076028;28;20028;-54
2022/01/20 11:54:26;;;;;;;7.47;1.77;;;;;;;17.05;51.88;102785.91;5042926;28;20100;-55
2022/01/20 11:57:13;;;;;;;11.13;1.70;;;;;;;16.30;62.25;102794.94;5076398;28;20033;-54
2022/01/20 11:59:42;;;;;;;5.28;1.50;;;;;;;15.44;67.21;102796.03;5075757;28;20045;-55
2022/01/20 12:02:08;;;;;;;8.87;2.20;;;;;;;14.64;66.21;102800.66;5056782;28;20032;-55
2022/01/20 12:04:40;;;;;;;12.70;2.65;;;;;;;14.53;68.57;102793.81;5057181;28;20346;-51
2022/01/20 12:07:32;;;;;;;14.53;3.07;;;;;;;15.08;72.13;102798.47;5057442;28;20566;-54
2022/01/20 12:10:26;;;;;;;11.70;2.77;;;;;;;15.25;68.36;102797.34;5075224;28;20282;-54
2022/01/20 12:12:53;;;;;;;7.20;1.63;;;;;;;15.72;59.30;102798.16;5073556;28;20281;-54
2022/01/20 12:15:22;;;;;;;8.20;2.10;;;;;;;14.67;65.00;102778.78;5075943;28;20281;-52
2022/01/20 12:17:51;;;;;;;13.87;2.47;;;;;;;14.31;59.13;102773.88;5057969;28;20769;-50
2022/01/20 12:20:17;;;;;;;11.80;2.70;;;;;;;14.39;70.54;102773.84;5075379;28;20348;-52
2022/01/20 12:22:44;;;;;;;11.35;2.30;;;;;;;14.06;64.70;102773.91;5075461;28;20270;-53
2022/01/20 12:25:20;;;;;;;13.90;2.57;;;;;;;14.27;65.67;102773.38;5074957;28;20048;-52
2022/01/20 12:27:46;;;;;;;10.03;2.40;;;;;;;14.31;74.97;102772.00;5057299;28;20275;-54
2022/01/20 12:30:24;;;;;;;11.05;2.30;;;;;;;13.51;79.94;102773.63;5057629;28;20265;-54
2022/01/20 12:33:11;;;;;;;9.20;2.37;;;;;;;13.86;84.31;102777.00;5057580;28;20048;-52
2022/01/20 12:35:40;;;;;;;;;;;;;;;13.92;65.05;102772.75;5057917;28;20371;-53
2022/01/20 12:38:27;;;;;;;7.97;2.43;;;;;;;13.39;93.97;102769.59;5056884;28;19916;-55
2022/01/20 12:41:02;;;;;;;16.57;2.57;;;;;;;12.95;100.00;102787.63;5074884;28;20265;-57